Castro Verd, Portugal
Current Conditions -  °F | °C
As of 2:00 PM on Sunday 23 Nov 2014 (Local Time) from LPBJ Reporting Station
Light Fog Light Fog  
Wind Chill: 14°   Ceiling: 300
Heat Index: 14°   Visibility: 3mi
Dew Point: 14°   Wind: 8mph
Humidity: 100%   Direction: 290°WNW
Pressure: 29.8"   Gusts: NA
Location:  37.7°N, 8.08°W
Report Text: LPBJ 231400Z 29007KT 5000 1500W BCFG BKN003 BKN022 14/14 Q1009
Loading
Personal Weather Stations






























Interactive Weather Map New forecast layout! Learn more

10-Day Weather Forecast

Advertisements
Track Severe Weather on mobile